Time;durP1;ratioP1;P1;durP2;ratioP2;P2;SDS_P1;SDS_P2;PMS_P1;PMS_P2;Temp;Humidity;BMP_temperature;BMP_pressure;BME280_temperature;BME280_humidity;BME280_pressure;Samples;Min_cycle;Max_cycle;Signal;HPM_P1;HPM_P2
2022/05/03 00:00:32;;;;;;;7.00;3.72;;;;;;;10.47;63.74;94755.59;4997533;28;20054;-76
2022/05/03 00:03:00;;;;;;;4.13;3.72;;;;;;;10.46;64.38;94755.81;4982722;28;20038;-76
2022/05/03 00:05:38;;;;;;;6.10;4.10;;;;;;;10.43;64.20;94754.47;4999612;28;20112;-76
2022/05/03 00:08:07;;;;;;;4.20;3.80;;;;;;;10.29;64.16;94752.38;4998497;28;20180;-76
2022/05/03 00:10:50;;;;;;;5.88;4.32;;;;;;;10.27;64.79;94757.81;4997116;28;20061;-76
2022/05/03 00:13:18;;;;;;;6.38;4.20;;;;;;;10.15;65.86;94754.41;5006403;28;20034;-76
2022/05/03 00:15:44;;;;;;;13.35;4.65;;;;;;;10.17;64.93;94755.75;5005364;28;20030;-76
2022/05/03 00:18:09;;;;;;;5.07;4.57;;;;;;;10.22;65.31;94750.69;4993055;28;20413;-76
2022/05/03 00:20:35;;;;;;;4.93;3.58;;;;;;;10.06;65.63;94743.59;4985457;28;20415;-76
2022/05/03 00:23:01;;;;;;;7.32;4.07;;;;;;;10.07;64.64;94750.34;5003195;28;20038;-76
2022/05/03 00:25:26;;;;;;;4.85;4.35;;;;;;;10.11;65.34;94741.09;4985353;28;20034;-76
2022/05/03 00:27:51;;;;;;;4.13;3.83;;;;;;;10.15;64.75;94742.22;5001667;28;20467;-75
2022/05/03 00:30:17;;;;;;;14.00;4.07;;;;;;;10.11;65.88;94751.50;4993556;28;20123;-76
2022/05/03 00:32:43;;;;;;;5.22;4.13;;;;;;;10.19;65.99;94748.53;4993263;28;20049;-76
2022/05/03 00:35:11;;;;;;;4.53;4.07;;;;;;;10.09;65.90;94743.16;4983163;28;20119;-76
2022/05/03 00:37:36;;;;;;;5.22;4.47;;;;;;;10.05;66.52;94736.81;4999407;28;20435;-76
2022/05/03 00:40:03;;;;;;;8.23;4.43;;;;;;;10.12;65.79;94744.50;5002245;28;20037;-76
2022/05/03 00:43:07;;;;;;;7.65;4.20;;;;;;;10.15;66.71;94742.22;5002864;28;20117;-75
2022/05/03 00:46:01;;;;;;;4.18;3.78;;;;;;;10.07;66.45;94739.19;4988748;28;20046;-75
2022/05/03 00:48:32;;;;;;;6.47;4.32;;;;;;;10.02;66.67;94746.88;5001951;28;20105;-76
2022/05/03 00:51:12;;;;;;;4.80;4.40;;;;;;;10.04;67.19;94739.66;5007055;28;20026;-76
2022/05/03 00:54:14;;;;;;;4.07;3.80;;;;;;;10.15;65.96;94747.41;5002768;28;20371;-75
2022/05/03 00:57:06;;;;;;;3.78;3.58;;;;;;;10.21;65.90;94740.53;5002109;28;20525;-76
2022/05/03 00:59:50;;;;;;;4.20;3.90;;;;;;;10.12;66.31;94741.91;5008879;28;20038;-76
2022/05/03 01:02:15;;;;;;;4.35;3.95;;;;;;;10.06;67.19;94748.00;5001919;28;20108;-76
2022/05/03 01:05:06;;;;;;;6.13;4.43;;;;;;;10.11;67.58;94740.31;5002228;28;20038;-75
2022/05/03 01:07:35;;;;;;;6.38;4.22;;;;;;;10.07;67.64;94739.97;4997976;28;20182;-76
2022/05/03 01:10:25;;;;;;;4.15;3.80;;;;;;;9.98;66.58;94736.16;4977613;28;20068;-77
2022/05/03 01:12:57;;;;;;;7.53;4.95;;;;;;;10.05;67.09;94736.81;5002667;28;20441;-76
2022/05/03 01:15:25;;;;;;;5.72;4.00;;;;;;;10.11;67.20;94735.91;5003201;28;20034;-76
2022/05/03 01:18:25;;;;;;;5.18;3.78;;;;;;;9.98;66.28;94741.34;4993803;28;20048;-75
2022/05/03 01:21:06;;;;;;;4.45;4.05;;;;;;;9.97;66.49;94728.59;5010472;28;20037;-75
2022/05/03 01:23:40;;;;;;;4.20;3.90;;;;;;;10.05;66.90;94734.22;5001375;28;20061;-76
2022/05/03 01:26:27;;;;;;;3.47;3.28;;;;;;;10.07;66.08;94733.97;5003228;28;20034;-76
2022/05/03 01:29:14;;;;;;;5.72;4.63;;;;;;;10.16;66.19;94730.00;4998912;28;20042;-76
2022/05/03 01:31:39;;;;;;;3.90;3.60;;;;;;;10.19;65.46;94726.94;5001089;28;20058;-76
2022/05/03 01:34:05;;;;;;;4.20;3.90;;;;;;;10.12;65.06;94727.09;5001512;28;20053;-76
2022/05/03 01:37:06;;;;;;;4.00;3.70;;;;;;;10.06;65.74;94729.81;4985030;28;20038;-76
2022/05/03 01:39:47;;;;;;;3.65;3.30;;;;;;;10.08;66.12;94714.78;5004192;28;20046;-77
2022/05/03 01:42:41;;;;;;;5.60;3.80;;;;;;;10.06;66.52;94716.81;5004821;28;20041;-77
2022/05/03 01:45:08;;;;;;;5.28;4.10;;;;;;;9.99;66.14;94709.16;5000330;28;20030;-76
2022/05/03 01:47:48;;;;;;;7.10;3.60;;;;;;;10.09;65.71;94709.38;5004213;28;20065;-77
2022/05/03 01:50:27;;;;;;;4.05;3.75;;;;;;;10.03;65.94;94705.09;5008649;28;20502;-77
2022/05/03 01:53:24;;;;;;;4.88;4.00;;;;;;;10.07;66.01;94698.41;5003303;28;20499;-77
2022/05/03 01:56:23;;;;;;;4.82;3.75;;;;;;;10.13;64.69;94701.91;5003313;28;20030;-77
2022/05/03 01:59:07;;;;;;;3.38;3.15;;;;;;;10.25;64.82;94701.88;5001125;28;20564;-77
2022/05/03 02:01:50;;;;;;;4.53;4.10;;;;;;;10.23;62.82;94715.88;5001496;28;20065;-77
2022/05/03 02:04:45;;;;;;;3.75;3.45;;;;;;;10.10;63.81;94707.56;4981831;28;20026;-77
2022/05/03 02:07:32;;;;;;;3.97;3.63;;;;;;;10.12;63.88;94705.53;5000246;28;20074;-77
2022/05/03 02:10:17;;;;;;;4.18;3.50;;;;;;;10.04;65.25;94713.66;5008507;28;20038;-77
2022/05/03 02:12:44;;;;;;;4.60;4.25;;;;;;;9.93;64.93;94697.09;5000044;28;20066;-76
2022/05/03 02:15:12;;;;;;;7.07;3.33;;;;;;;9.95;65.23;94709.88;4975350;28;20037;-78
2022/05/03 02:17:51;;;;;;;5.32;4.05;;;;;;;9.93;65.37;94704.91;4978373;28;20120;-76
2022/05/03 02:20:34;;;;;;;4.90;4.40;;;;;;;9.82;65.08;94705.72;5000960;28;20033;-76
2022/05/03 02:22:59;;;;;;;4.13;3.83;;;;;;;9.81;65.75;94709.31;5008412;28;20038;-76
2022/05/03 02:25:42;;;;;;;4.88;4.40;;;;;;;9.71;66.25;94706.50;5003384;28;20521;-76
2022/05/03 02:28:33;;;;;;;6.15;4.93;;;;;;;9.73;66.09;94696.69;4997491;28;20069;-76
2022/05/03 02:31:00;;;;;;;5.03;4.63;;;;;;;9.73;66.25;94702.66;5001356;28;20040;-76
2022/05/03 02:33:26;;;;;;;5.18;4.68;;;;;;;9.78;65.89;94704.59;4984563;28;20426;-76
2022/05/03 02:35:55;;;;;;;4.18;3.85;;;;;;;9.77;65.01;94695.22;5005016;28;20026;-76
2022/05/03 02:38:23;;;;;;;5.80;4.30;;;;;;;9.74;65.05;94696.44;5002322;28;20069;-77
2022/05/03 02:40:52;;;;;;;6.80;4.40;;;;;;;9.75;65.29;94702.44;4980978;28;20121;-76
2022/05/03 02:43:17;;;;;;;5.05;4.65;;;;;;;9.69;66.35;94692.97;4999767;28;20046;-76
2022/05/03 02:45:50;;;;;;;5.20;4.70;;;;;;;9.74;66.05;94698.25;4990900;28;20386;-76
2022/05/03 02:48:21;;;;;;;;;;;;;;;9.74;66.06;94698.25;5001192;28;20034;-76
2022/05/03 02:51:03;;;;;;;5.15;4.68;;;;;;;9.64;66.65;94693.66;5000427;28;19965;-76
2022/05/03 02:53:41;;;;;;;5.25;4.78;;;;;;;9.41;67.99;94698.88;4982177;28;20035;-76
2022/05/03 02:56:32;;;;;;;5.20;4.70;;;;;;;9.47;67.22;94692.78;5006871;28;20163;-76
2022/05/03 02:59:22;;;;;;;9.43;5.18;;;;;;;9.35;68.05;94699.78;5006892;28;20049;-76
2022/05/03 03:01:58;;;;;;;13.23;5.45;;;;;;;9.35;67.29;94692.78;5000610;28;20040;-76
2022/05/03 03:04:44;;;;;;;5.07;4.68;;;;;;;9.42;67.64;94695.25;4998188;28;20022;-76
2022/05/03 03:07:18;;;;;;;7.90;5.00;;;;;;;9.24;67.42;94690.97;5001098;28;20516;-76
2022/05/03 03:09:49;;;;;;;4.97;4.57;;;;;;;9.27;66.41;94693.94;5006247;28;20367;-76
2022/05/03 03:12:14;;;;;;;5.53;5.13;;;;;;;9.33;67.45;94702.59;5007679;28;20042;-76
2022/05/03 03:14:43;;;;;;;4.93;4.53;;;;;;;9.39;66.50;94691.31;4999950;28;20042;-76
2022/05/03 03:17:10;;;;;;;5.57;4.55;;;;;;;9.42;65.68;94693.44;4989988;28;20497;-76
2022/05/03 03:20:06;;;;;;;15.02;4.57;;;;;;;9.37;65.53;94690.75;5022495;23;20077;-76
2022/05/03 03:22:41;;;;;;;5.00;4.60;;;;;;;9.44;65.06;94696.63;4999890;28;20133;-75
2022/05/03 03:25:08;;;;;;;11.85;4.97;;;;;;;9.34;64.92;94699.00;4992913;28;20026;-76
2022/05/03 03:27:34;;;;;;;6.22;4.82;;;;;;;9.35;65.29;94694.59;4990120;28;20030;-76
2022/05/03 03:30:01;;;;;;;5.55;4.85;;;;;;;9.47;65.27;94692.78;4988645;28;20462;-76
2022/05/03 03:32:26;;;;;;;5.30;4.80;;;;;;;9.51;65.05;94710.25;4989621;28;20037;-76
2022/05/03 03:34:56;;;;;;;5.57;5.07;;;;;;;9.50;65.88;94697.50;4988927;28;20394;-76
2022/05/03 03:37:23;;;;;;;5.35;4.93;;;;;;;9.53;65.55;94700.44;4957189;28;20034;-75
2022/05/03 03:39:48;;;;;;;6.03;4.72;;;;;;;9.68;65.51;94701.78;4973810;28;20064;-76
2022/05/03 03:42:14;;;;;;;5.28;4.85;;;;;;;9.79;64.85;94695.78;4991394;28;20034;-76
2022/05/03 03:44:39;;;;;;;6.53;4.82;;;;;;;9.82;64.70;94700.50;4990320;28;20031;-75
2022/05/03 03:47:05;;;;;;;4.82;4.43;;;;;;;9.76;65.91;94697.03;4988710;28;20513;-76
2022/05/03 03:49:30;;;;;;;5.35;4.85;;;;;;;9.77;65.21;94703.81;4990048;28;20031;-76
2022/05/03 03:51:59;;;;;;;8.85;5.85;;;;;;;9.86;65.40;94706.81;4988642;28;20044;-76
2022/05/03 03:54:24;;;;;;;5.63;5.07;;;;;;;9.62;65.78;94717.25;4989640;28;20030;-76
2022/05/03 03:56:50;;;;;;;5.18;4.78;;;;;;;9.73;65.58;94713.06;4988845;28;20055;-76
2022/05/03 03:59:15;;;;;;;5.25;4.80;;;;;;;9.77;66.23;94714.19;4989395;28;20047;-76
2022/05/03 04:01:41;;;;;;;5.53;5.13;;;;;;;9.85;66.51;94720.81;4975558;28;20090;-76
2022/05/03 04:04:07;;;;;;;6.65;5.65;;;;;;;9.93;66.40;94715.28;4988835;28;20041;-75
2022/05/03 04:06:33;;;;;;;6.80;5.03;;;;;;;9.97;66.53;94713.81;4972692;28;20042;-75
2022/05/03 04:08:59;;;;;;;9.50;5.18;;;;;;;9.88;66.77;94717.78;4972488;28;20045;-76
2022/05/03 04:11:24;;;;;;;5.68;5.18;;;;;;;9.86;66.67;94719.81;5004863;28;20033;-76
2022/05/03 04:13:49;;;;;;;9.65;4.97;;;;;;;9.85;68.09;94721.63;4989849;28;20043;-77
2022/05/03 04:16:15;;;;;;;6.95;6.22;;;;;;;9.79;67.91;94716.56;4955722;28;20030;-76
2022/05/03 04:18:46;;;;;;;6.05;5.55;;;;;;;9.83;67.65;94722.88;4988193;28;20033;-76
2022/05/03 04:21:16;;;;;;;5.88;5.35;;;;;;;9.84;67.63;94725.22;5002635;28;20030;-76
2022/05/03 04:23:41;;;;;;;5.72;5.18;;;;;;;9.94;66.44;94722.06;4988984;28;20463;-76
2022/05/03 04:26:09;;;;;;;6.82;5.38;;;;;;;9.68;66.66;94717.34;5004300;28;20046;-76
2022/05/03 04:28:35;;;;;;;6.65;5.88;;;;;;;9.87;67.52;94729.19;4987058;28;20104;-76
2022/05/03 04:31:00;;;;;;;8.70;5.43;;;;;;;9.89;67.97;94737.53;4989318;28;20113;-76
2022/05/03 04:33:25;;;;;;;5.97;5.50;;;;;;;9.86;67.59;94730.97;4989282;28;20414;-76
2022/05/03 04:35:51;;;;;;;6.40;5.55;;;;;;;9.81;67.13;94730.09;4989145;28;20042;-76
2022/05/03 04:38:19;;;;;;;6.03;5.43;;;;;;;9.93;66.97;94736.06;4989550;28;20038;-76
2022/05/03 04:40:45;;;;;;;5.95;5.43;;;;;;;9.95;66.24;94731.44;4987805;28;20589;-76
2022/05/03 04:43:10;;;;;;;6.25;5.07;;;;;;;9.99;66.78;94726.56;4989542;28;20081;-76
2022/05/03 04:45:36;;;;;;;5.22;4.72;;;;;;;9.96;66.73;94735.59;4954880;28;20088;-76
2022/05/03 04:48:01;;;;;;;5.32;4.82;;;;;;;10.18;65.68;94725.38;4987978;28;20026;-77
2022/05/03 04:50:27;;;;;;;5.40;4.93;;;;;;;10.39;65.42;94726.56;4988996;28;20025;-76
2022/05/03 04:52:52;;;;;;;9.55;4.57;;;;;;;10.67;63.32;94736.97;4988195;28;20038;-76
2022/05/03 04:55:18;;;;;;;4.30;3.90;;;;;;;10.59;62.02;94729.56;4971049;28;20505;-76
2022/05/03 04:57:43;;;;;;;4.70;4.25;;;;;;;10.76;62.20;94727.78;4987814;28;20042;-76
2022/05/03 05:00:09;;;;;;;4.57;3.83;;;;;;;10.91;61.08;94735.03;5003705;28;20026;-75
2022/05/03 05:02:34;;;;;;;6.60;4.32;;;;;;;10.87;60.82;94740.94;4989896;28;20591;-75
2022/05/03 05:05:00;;;;;;;6.40;4.43;;;;;;;10.86;59.97;94728.94;4989667;28;20057;-75
2022/05/03 05:07:25;;;;;;;4.18;3.88;;;;;;;10.90;59.39;94732.66;4975365;28;20395;-75
2022/05/03 05:12:35;;;;;;;4.28;3.97;;;;;;;10.73;58.60;94738.63;5005422;23;20112;-76
2022/05/03 05:15:00;;;;;;;4.78;3.47;;;;;;;10.71;59.41;94738.06;4995984;28;20026;-76
2022/05/03 05:17:25;;;;;;;7.00;3.80;;;;;;;10.88;57.86;94745.91;4991205;28;20406;-76
2022/05/03 05:19:51;;;;;;;5.38;4.10;;;;;;;10.93;57.99;94732.19;4992600;28;20034;-76
2022/05/03 05:22:16;;;;;;;4.10;3.70;;;;;;;11.07;58.15;94738.69;4992628;28;20041;-76
2022/05/03 05:24:42;;;;;;;6.93;3.55;;;;;;;10.85;58.51;94735.16;4992604;28;20031;-77
2022/05/03 05:29:47;;;;;;;4.75;4.13;;;;;;;10.82;58.65;94729.41;5031389;23;20053;-76
2022/05/03 05:32:12;;;;;;;4.10;3.80;;;;;;;10.74;58.45;94744.63;5011817;28;20482;-76
2022/05/03 05:34:38;;;;;;;5.15;4.13;;;;;;;10.90;58.03;94743.06;5011310;28;20041;-77
2022/05/03 05:37:03;;;;;;;4.57;3.85;;;;;;;11.20;57.63;94738.34;5011563;28;20033;-76
2022/05/03 05:39:29;;;;;;;6.45;4.20;;;;;;;11.75;55.84;94732.38;5011492;28;20044;-76
2022/05/03 05:44:23;;;;;;;5.03;3.50;;;;;;;13.44;50.26;94730.47;5026550;23;20054;-77
2022/05/03 05:46:49;;;;;;;3.58;3.28;;;;;;;13.69;49.20;94733.25;5011230;28;21031;-76
2022/05/03 05:49:14;;;;;;;3.95;3.22;;;;;;;13.37;49.04;94740.34;4994771;28;20038;-78
2022/05/03 05:51:40;;;;;;;4.72;3.33;;;;;;;12.89;49.98;94749.84;5011747;28;20033;-76
2022/05/03 05:54:12;;;;;;;3.15;2.95;;;;;;;13.23;49.14;94745.22;4994657;23;20047;-77
2022/05/03 05:56:38;;;;;;;7.30;3.17;;;;;;;13.45;48.36;94760.78;4994897;28;20494;-77
2022/05/03 05:59:03;;;;;;;3.38;3.10;;;;;;;14.38;46.24;94756.56;4991315;28;20524;-77
2022/05/03 06:01:36;;;;;;;3.83;2.90;;;;;;;15.47;42.84;94761.75;4990547;28;20038;-77
2022/05/03 06:04:02;;;;;;;4.75;3.03;;;;;;;16.36;40.58;94749.78;4973456;28;20061;-77
2022/05/03 06:06:27;;;;;;;14.85;2.45;;;;;;;17.98;37.22;94761.00;4992064;28;20042;-78
2022/05/03 06:08:53;;;;;;;4.95;2.50;;;;;;;17.89;36.90;94765.31;4991446;28;20035;-76
2022/05/03 06:11:18;;;;;;;4.10;2.70;;;;;;;16.89;38.41;94752.66;4970610;28;20027;-75
2022/05/03 06:13:44;;;;;;;4.57;2.38;;;;;;;15.96;39.62;94769.06;4990581;28;20463;-75
2022/05/03 06:16:09;;;;;;;4.85;2.67;;;;;;;15.21;41.94;94766.19;4987929;28;20445;-76
2022/05/03 06:18:36;;;;;;;3.75;3.20;;;;;;;14.67;43.61;94774.50;4991469;28;20049;-77
2022/05/03 06:21:02;;;;;;;4.45;2.45;;;;;;;14.33;44.38;94780.09;4991326;28;20046;-77
2022/05/03 06:23:27;;;;;;;3.35;3.00;;;;;;;13.80;45.40;94787.13;4991433;28;20035;-77
2022/05/03 06:25:53;;;;;;;13.95;3.22;;;;;;;13.49;46.06;94773.06;4974306;28;20045;-78
2022/05/03 06:28:19;;;;;;;7.63;2.83;;;;;;;13.39;46.06;94773.00;4979012;28;20037;-78
2022/05/03 06:30:44;;;;;;;3.22;2.92;;;;;;;13.80;45.99;94779.28;4978408;28;20162;-78
2022/05/03 06:33:10;;;;;;;3.08;2.83;;;;;;;13.66;45.93;94780.78;4976882;28;20598;-77
2022/05/03 06:35:35;;;;;;;4.47;2.95;;;;;;;13.95;46.05;94778.59;4992555;28;20035;-77
2022/05/03 06:38:01;;;;;;;4.00;2.88;;;;;;;13.78;45.99;94794.44;4994676;28;20191;-78
2022/05/03 06:40:26;;;;;;;4.72;3.00;;;;;;;13.90;46.20;94791.66;4977387;28;20038;-78
2022/05/03 06:42:52;;;;;;;5.18;2.97;;;;;;;13.67;46.76;94803.28;4994149;28;20035;-78
2022/05/03 06:45:18;;;;;;;5.63;3.30;;;;;;;13.21;47.96;94797.69;4982292;23;20061;-78
2022/05/03 06:47:48;;;;;;;3.63;3.33;;;;;;;13.20;48.60;94787.50;5028911;28;20162;-77
2022/05/03 06:50:13;;;;;;;4.22;3.83;;;;;;;13.43;49.12;94787.16;5024379;28;20030;-80
2022/05/03 06:52:39;;;;;;;7.55;3.83;;;;;;;13.52;47.97;94792.72;5019901;28;20117;-78
2022/05/03 06:55:05;;;;;;;6.85;3.72;;;;;;;13.79;47.97;94790.78;5019792;28;20072;-77
2022/05/03 06:57:31;;;;;;;16.20;3.75;;;;;;;13.84;47.51;94797.91;5020175;28;20065;-78
2022/05/03 06:59:56;;;;;;;9.32;3.90;;;;;;;13.86;47.76;94793.19;4985683;28;20052;-78
2022/05/03 07:02:22;;;;;;;3.58;3.28;;;;;;;13.99;47.54;94805.03;5023126;28;20980;-77
2022/05/03 07:04:47;;;;;;;5.63;3.72;;;;;;;14.01;47.49;94797.72;5019586;28;20022;-78
2022/05/03 07:07:14;;;;;;;3.95;3.60;;;;;;;13.86;47.22;94808.09;5018525;28;20801;-79
2022/05/03 07:09:40;;;;;;;3.08;2.88;;;;;;;13.43;48.65;94813.25;5022005;28;20030;-78
2022/05/03 07:12:06;;;;;;;11.98;3.80;;;;;;;12.94;49.87;94799.47;5024087;28;20037;-79
2022/05/03 07:14:32;;;;;;;7.70;3.05;;;;;;;13.40;49.21;94797.31;4990457;28;20030;-78
2022/05/03 07:16:57;;;;;;;5.03;3.50;;;;;;;13.78;48.68;94798.88;4989481;28;20034;-80
2022/05/03 07:22:45;;;;;;;3.70;3.40;;;;;;;13.37;49.17;94813.47;5001103;28;20116;-79
2022/05/03 07:24:58;;;;;;;4.03;3.60;;;;;;;13.39;49.59;94816.63;4997269;28;20050;-79
2022/05/03 07:27:23;;;;;;;3.85;3.55;;;;;;;13.05;50.54;94798.56;4990118;28;20149;-79
2022/05/03 07:29:49;;;;;;;11.32;3.65;;;;;;;13.35;50.67;94798.06;5031333;23;20096;-79
2022/05/03 07:32:14;;;;;;;4.13;3.72;;;;;;;13.75;49.65;94813.25;5013541;28;20041;-78
2022/05/03 07:34:40;;;;;;;4.05;3.75;;;;;;;13.69;49.03;94806.41;5022929;28;20104;-76
2022/05/03 07:37:05;;;;;;;8.57;3.50;;;;;;;13.40;50.58;94818.22;5019708;28;20034;-78
2022/05/03 07:39:31;;;;;;;7.28;3.63;;;;;;;13.37;50.66;94800.44;5046111;23;20050;-78
2022/05/03 07:41:57;;;;;;;8.63;4.55;;;;;;;13.47;51.28;94800.50;5010945;28;20056;-78
2022/05/03 07:44:23;;;;;;;8.55;4.30;;;;;;;13.01;52.37;94812.31;5010574;28;20037;-78
2022/05/03 07:46:48;;;;;;;5.18;4.05;;;;;;;12.70;52.91;94808.63;4989809;28;20072;-78
2022/05/03 07:49:13;;;;;;;11.88;4.10;;;;;;;12.89;52.98;94812.47;5010885;28;20080;-78
2022/05/03 07:54:09;;;;;;;4.10;3.65;;;;;;;12.99;52.16;94817.78;5057592;23;20472;-77
2022/05/03 07:56:35;;;;;;;5.95;4.13;;;;;;;13.04;51.93;94814.47;5027985;28;20477;-78
2022/05/03 07:59:00;;;;;;;5.28;3.58;;;;;;;12.90;51.82;94819.28;5011913;28;20030;-78
2022/05/03 08:01:26;;;;;;;6.07;3.85;;;;;;;12.87;52.43;94817.16;5031360;28;20489;-78
2022/05/03 08:03:51;;;;;;;6.47;3.92;;;;;;;12.84;52.73;94815.03;5034894;23;20061;-78
2022/05/03 08:06:17;;;;;;;4.45;4.05;;;;;;;12.69;52.91;94826.13;5001112;28;20046;-78
2022/05/03 08:08:42;;;;;;;12.50;3.67;;;;;;;12.38;53.48;94816.34;4999554;28;20027;-78
2022/05/03 08:11:08;;;;;;;11.80;5.20;;;;;;;12.12;54.54;94833.47;4999353;28;20042;-78
2022/05/03 08:13:33;;;;;;;11.27;4.13;;;;;;;11.77;55.69;94831.91;5010675;28;20383;-78
2022/05/03 08:15:59;;;;;;;7.70;4.53;;;;;;;11.60;57.05;94846.75;4986534;28;20034;-78
2022/05/03 08:18:24;;;;;;;9.30;3.50;;;;;;;11.33;57.63;94857.00;5000557;28;20030;-78
2022/05/03 08:20:51;;;;;;;4.80;3.60;;;;;;;11.32;57.82;94840.59;4985414;28;20033;-78
2022/05/03 08:23:16;;;;;;;7.90;3.70;;;;;;;11.40;58.01;94839.41;5001717;28;20038;-78
2022/05/03 08:25:42;;;;;;;10.18;4.68;;;;;;;11.48;58.03;94844.22;5004187;28;20061;-78
2022/05/03 08:28:07;;;;;;;7.75;3.42;;;;;;;11.49;56.90;94861.44;5001076;28;20085;-78
2022/05/03 08:30:34;;;;;;;4.75;3.30;;;;;;;11.13;58.41;94847.81;5005222;23;20041;-77
2022/05/03 08:32:59;;;;;;;3.97;3.10;;;;;;;11.07;58.86;94868.78;5008896;28;20520;-77
2022/05/03 08:35:25;;;;;;;13.75;4.57;;;;;;;11.08;58.81;94850.34;4985961;28;20030;-78
2022/05/03 08:43:18;;;;;;;3.85;3.55;;;;;;;10.91;59.11;94865.13;4973800;28;20396;-78
2022/05/03 08:45:48;;;;;;;5.38;3.35;;;;;;;10.88;59.49;94869.97;5001120;28;20026;-78
2022/05/03 08:48:15;;;;;;;3.10;2.88;;;;;;;10.91;58.96;94870.31;5004088;28;20034;-78
2022/05/03 08:50:40;;;;;;;3.45;3.25;;;;;;;10.98;59.61;94886.56;4986072;28;20178;-78
2022/05/03 08:53:06;;;;;;;3.40;3.10;;;;;;;10.95;58.81;94873.25;4986583;28;20707;-78
2022/05/03 08:55:31;;;;;;;3.15;2.90;;;;;;;11.12;58.16;94866.28;5001446;28;20563;-78
2022/05/03 08:58:00;;;;;;;3.38;3.17;;;;;;;11.41;57.32;94870.44;4969631;28;20038;-78
2022/05/03 09:00:30;;;;;;;3.30;3.00;;;;;;;11.60;56.80;94862.38;5052533;23;20103;-80
2022/05/03 09:02:56;;;;;;;7.82;3.05;;;;;;;12.07;55.62;94862.88;5017432;28;20030;-80
2022/05/03 09:05:22;;;;;;;5.28;3.30;;;;;;;12.44;54.03;94857.88;4999104;28;20121;-80
2022/05/03 09:07:52;;;;;;;8.77;4.15;;;;;;;12.55;53.76;94859.59;4998455;28;20042;-80
2022/05/03 09:10:20;;;;;;;2.90;2.70;;;;;;;12.51;52.81;94865.53;5018108;28;20398;-80
2022/05/03 09:12:46;;;;;;;2.90;2.70;;;;;;;12.42;53.29;94866.97;5020499;23;20046;-80
2022/05/03 09:15:11;;;;;;;9.25;2.88;;;;;;;12.68;52.63;94873.28;5010588;28;20045;-80
2022/05/03 09:17:41;;;;;;;3.58;2.90;;;;;;;12.67;52.60;94862.06;4974000;28;20033;-80
2022/05/03 09:25:47;;;;;;;4.60;2.63;;;;;;;13.08;49.53;94857.31;5005637;28;20106;-79
2022/05/03 09:28:13;;;;;;;8.88;2.35;;;;;;;13.21;49.08;94860.34;4976073;28;20609;-80
2022/05/03 09:30:46;;;;;;;3.53;3.15;;;;;;;13.69;48.53;94866.53;5010760;28;20041;-80
2022/05/03 09:33:16;;;;;;;2.63;2.42;;;;;;;13.94;48.39;94850.22;5010062;28;20042;-79
2022/05/03 09:35:41;;;;;;;3.47;2.45;;;;;;;14.27;47.13;94849.13;5016387;28;20039;-79
2022/05/03 09:38:06;;;;;;;3.22;2.60;;;;;;;14.38;45.75;94850.75;5009480;28;20038;-80
2022/05/03 09:40:43;;;;;;;7.28;2.60;;;;;;;14.41;45.40;94842.41;4985429;28;20041;-79
2022/05/03 09:43:11;;;;;;;7.60;2.50;;;;;;;14.62;45.35;94837.28;5002541;28;20023;-80
2022/05/03 09:45:37;;;;;;;2.60;2.35;;;;;;;14.83;44.50;94841.56;5003634;28;20514;-79
2022/05/03 09:48:03;;;;;;;6.95;2.70;;;;;;;14.74;44.80;94847.53;4983150;28;20037;-80
2022/05/03 09:50:43;;;;;;;3.70;2.80;;;;;;;14.53;45.33;94844.06;4983641;28;20497;-79
2022/05/03 09:53:16;;;;;;;11.07;3.05;;;;;;;14.15;46.73;94843.28;4968716;28;20038;-79
2022/05/03 09:55:42;;;;;;;7.60;2.72;;;;;;;13.92;46.59;94835.84;4985694;28;20041;-78
2022/05/03 09:58:09;;;;;;;2.85;2.60;;;;;;;13.96;47.32;94840.31;4971832;28;20065;-79
2022/05/03 10:00:35;;;;;;;2.60;2.40;;;;;;;13.99;46.76;94837.22;4986850;28;20035;-80
2022/05/03 10:03:02;;;;;;;2.65;2.45;;;;;;;14.14;47.19;94839.09;4987730;28;20058;-80
2022/05/03 10:05:28;;;;;;;6.30;2.65;;;;;;;14.19;47.04;94841.75;5031085;23;20422;-80
2022/05/03 10:07:54;;;;;;;4.13;2.70;;;;;;;14.25;46.77;94838.13;4997210;28;20176;-80
2022/05/03 10:10:20;;;;;;;5.57;2.42;;;;;;;14.53;45.68;94830.97;4944660;28;20027;-79
2022/05/03 10:12:46;;;;;;;7.05;2.42;;;;;;;14.80;44.99;94828.97;4961146;28;20035;-80
2022/05/03 10:15:12;;;;;;;3.33;2.60;;;;;;;14.95;44.59;94833.44;5005405;23;20043;-79
2022/05/03 10:20:38;;;;;;;2.42;2.22;;;;;;;14.34;44.40;94828.78;4976151;28;20058;-79
2022/05/03 10:23:04;;;;;;;4.60;2.10;;;;;;;14.20;44.69;94821.63;4970929;28;20023;-79
2022/05/03 10:25:57;;;;;;;5.45;2.45;;;;;;;14.26;45.48;94834.47;4991988;28;20041;-79
2022/05/03 10:28:22;;;;;;;2.70;2.10;;;;;;;14.41;44.41;94845.00;4962081;28;20113;-79
2022/05/03 10:31:10;;;;;;;2.25;2.15;;;;;;;14.46;43.53;94827.78;4962159;28;20491;-78
2022/05/03 10:33:37;;;;;;;2.10;2.00;;;;;;;14.49;43.87;94824.69;4979652;28;20038;-79
2022/05/03 10:36:03;;;;;;;3.20;2.42;;;;;;;14.76;44.33;94827.91;4960751;28;20031;-79
2022/05/03 10:38:39;;;;;;;9.70;2.30;;;;;;;14.78;43.46;94817.97;4977589;28;20058;-79
2022/05/03 10:41:05;;;;;;;3.60;2.28;;;;;;;14.79;43.47;94827.38;4976757;28;20501;-78
2022/05/03 10:43:31;;;;;;;2.70;2.25;;;;;;;14.94;43.96;94816.16;4981259;28;20053;-79
2022/05/03 10:46:20;;;;;;;2.13;1.90;;;;;;;14.49;42.99;94819.44;4963700;28;20094;-81
2022/05/03 10:49:06;;;;;;;5.10;2.17;;;;;;;14.71;43.17;94828.69;4973165;28;20059;-80
2022/05/03 10:51:32;;;;;;;2.30;2.13;;;;;;;14.83;43.21;94825.84;4953753;28;20031;-80
2022/05/03 10:53:58;;;;;;;2.90;1.95;;;;;;;14.87;43.53;94829.53;4945989;28;20094;-80
2022/05/03 10:56:24;;;;;;;2.15;1.95;;;;;;;14.80;43.75;94828.16;4955679;28;20557;-79
2022/05/03 10:59:03;;;;;;;7.88;2.45;;;;;;;14.64;44.10;94824.72;4943046;28;20042;-79
2022/05/03 11:01:29;;;;;;;5.93;2.38;;;;;;;14.78;43.76;94825.81;4973236;28;20454;-79
2022/05/03 11:03:58;;;;;;;9.82;2.20;;;;;;;14.86;43.21;94822.72;4976213;28;20031;-79
2022/05/03 11:06:26;;;;;;;2.78;2.30;;;;;;;15.01;42.91;94828.00;4974848;28;20069;-79
2022/05/03 11:08:57;;;;;;;2.47;2.28;;;;;;;15.11;42.85;94816.72;4976588;28;20043;-79
2022/05/03 11:11:53;;;;;;;12.40;7.30;;;;;;;15.15;42.66;94822.25;4976007;28;20035;-80
2022/05/03 11:14:21;;;;;;;4.55;2.65;;;;;;;15.17;42.01;94817.53;4984519;28;20526;-80
2022/05/03 11:16:50;;;;;;;22.08;11.65;;;;;;;15.31;42.36;94816.78;4976368;28;20070;-80
2022/05/03 11:19:17;;;;;;;2.92;2.55;;;;;;;15.41;42.18;94829.09;4973854;28;20058;-80
2022/05/03 11:21:43;;;;;;;2.70;2.50;;;;;;;15.19;42.53;94823.31;4957024;28;20038;-79
2022/05/03 11:24:18;;;;;;;28.27;17.15;;;;;;;15.12;41.29;94814.91;4974197;28;20100;-80
2022/05/03 11:26:43;;;;;;;14.13;9.88;;;;;;;15.08;41.44;94819.09;4974205;28;20038;-79
2022/05/03 11:29:11;;;;;;;3.00;2.80;;;;;;;14.76;42.46;94820.06;4960204;28;20037;-79
2022/05/03 11:31:37;;;;;;;26.45;14.60;;;;;;;14.94;42.05;94822.19;4961233;28;20030;-79
2022/05/03 11:34:03;;;;;;;4.60;3.55;;;;;;;15.08;41.83;94809.41;5018804;23;20065;-81
2022/05/03 11:36:29;;;;;;;6.30;2.03;;;;;;;15.07;40.97;94807.03;4995191;28;20041;-78
2022/05/03 11:38:55;;;;;;;8.05;4.38;;;;;;;14.96;41.95;94804.38;5069225;23;20032;-79
2022/05/03 11:41:25;;;;;;;52.85;28.27;;;;;;;15.11;41.75;94805.47;4998359;28;20088;-78
2022/05/03 11:43:50;;;;;;;10.48;5.65;;;;;;;15.06;41.64;94802.84;4999537;28;20488;-80
2022/05/03 11:46:17;;;;;;;12.63;3.13;;;;;;;15.31;40.87;94805.50;4971252;28;20120;-79
2022/05/03 11:48:43;;;;;;;5.53;2.63;;;;;;;15.44;40.85;94804.97;5016636;28;20041;-80
2022/05/03 11:56:44;;;;;;;2.15;1.88;;;;;;;15.40;40.09;94792.66;4982534;28;20427;-77
2022/05/03 11:59:09;;;;;;;2.53;2.33;;;;;;;15.15;40.96;94798.69;5013198;28;20037;-78
2022/05/03 12:01:35;;;;;;;3.53;2.42;;;;;;;15.02;41.90;94798.13;4991480;28;20117;-74
2022/05/03 12:04:02;;;;;;;5.78;2.25;;;;;;;15.17;41.13;94791.34;5012833;28;20176;-72
2022/05/03 12:06:44;;;;;;;4.57;2.20;;;;;;;15.17;40.57;94793.97;5011069;28;20040;-75
2022/05/03 12:09:16;;;;;;;2.65;2.45;;;;;;;15.29;40.71;94791.88;4976879;28;20037;-75
2022/05/03 12:14:42;;;;;;;2.05;1.95;;;;;;;15.36;40.39;94800.28;4984014;28;20049;-74
2022/05/03 12:17:08;;;;;;;14.35;2.05;;;;;;;15.27;41.13;94784.25;4978700;28;20045;-74
2022/05/03 12:19:37;;;;;;;6.15;2.05;;;;;;;15.15;40.54;94793.44;5011037;28;20072;-74
2022/05/03 12:22:12;;;;;;;4.35;2.20;;;;;;;15.06;40.25;94797.63;4978318;28;20061;-74